Time;durP1;ratioP1;P1;durP2;ratioP2;P2;SDS_P1;SDS_P2;PMS_P1;PMS_P2;Temp;Humidity;BMP_temperature;BMP_pressure;BME280_temperature;BME280_humidity;BME280_pressure;Samples;Min_cycle;Max_cycle;Signal;HPM_P1;HPM_P2
2021/01/20 00:02:28;;;;;;;1.73;1.60;;;;;;;0.93;100.00;98591.66;3913976;74;394584;-75
2021/01/20 00:07:50;;;;;;;1.40;1.17;;;;;;;0.94;100.00;98579.70;3914271;74;396087;-74
2021/01/20 00:13:11;;;;;;;1.87;1.33;;;;;;;0.93;100.00;98574.62;3913691;74;396383;-74
2021/01/20 00:18:32;;;;;;;4.33;1.03;;;;;;;0.93;100.00;98582.19;3911521;74;394010;-75
2021/01/20 00:23:53;;;;;;;1.10;0.70;;;;;;;1.05;100.00;98568.55;3912874;75;383576;-74
2021/01/20 00:29:14;;;;;;;0.80;0.50;;;;;;;1.12;100.00;98570.11;3913141;75;383794;-75
2021/01/20 00:34:35;;;;;;;1.73;1.63;;;;;;;0.99;100.00;98569.95;3912370;74;383537;-75
2021/01/20 00:39:57;;;;;;;0.93;0.70;;;;;;;0.84;100.00;98568.03;3914607;75;385613;-75
2021/01/20 00:45:18;;;;;;;0.80;0.50;;;;;;;0.74;100.00;98560.19;3913129;75;383534;-76
2021/01/20 00:50:40;;;;;;;1.30;0.50;;;;;;;0.63;100.00;98553.16;3912778;75;386907;-75
2021/01/20 00:56:01;;;;;;;0.80;0.53;;;;;;;0.59;100.00;98554.20;3915129;75;383801;-75
2021/01/20 01:01:22;;;;;;;1.00;0.87;;;;;;;0.46;100.00;98551.34;3912703;75;391897;-75
2021/01/20 01:06:45;;;;;;;3.93;1.00;;;;;;;0.42;100.00;98547.75;3912748;74;394049;-75
2021/01/20 01:12:05;;;;;;;1.27;1.17;;;;;;;0.57;100.00;98555.10;3914860;74;385617;-75
2021/01/20 01:17:26;;;;;;;1.17;1.07;;;;;;;0.48;100.00;98547.16;3916596;74;383821;-75
2021/01/20 01:22:48;;;;;;;2.23;1.30;;;;;;;0.36;100.00;98549.14;3934661;74;391953;-75
2021/01/20 01:28:13;;;;;;;1.17;0.70;;;;;;;0.25;100.00;98539.39;3935055;74;387766;-75
2021/01/20 01:33:34;;;;;;;0.90;0.80;;;;;;;0.28;100.00;98537.91;3935444;73;385636;-74
2021/01/20 01:38:56;;;;;;;0.90;0.73;;;;;;;0.30;100.00;98537.00;3935107;74;383576;-75
2021/01/20 01:44:20;;;;;;;0.80;0.53;;;;;;;0.18;100.00;98527.03;3935372;73;383580;-75
2021/01/20 01:49:42;;;;;;;1.23;1.13;;;;;;;0.09;100.00;98529.64;3934540;73;391950;-75
2021/01/20 01:55:03;;;;;;;3.27;1.53;;;;;;;0.30;100.00;98534.30;3934550;74;391858;-75
2021/01/20 02:00:24;;;;;;;1.40;0.90;;;;;;;0.76;100.00;98517.33;3934354;74;393975;-75
2021/01/20 02:05:46;;;;;;;0.90;0.67;;;;;;;1.19;100.00;98516.09;3935673;74;383856;-75
2021/01/20 02:11:25;;;;;;;0.90;0.70;;;;;;;1.39;100.00;98515.00;3935311;74;385903;-75
2021/01/20 02:16:55;;;;;;;0.87;0.73;;;;;;;1.46;100.00;98508.38;3935391;74;383576;-74
2021/01/20 02:22:35;;;;;;;0.80;0.50;;;;;;;1.57;100.00;98506.70;3940094;74;383537;-75
2021/01/20 02:28:20;;;;;;;0.90;0.60;;;;;;;1.75;100.00;98497.80;3941287;74;383577;-75
2021/01/20 02:33:45;;;;;;;0.80;0.50;;;;;;;1.79;100.00;98491.89;3943221;74;383821;-75
2021/01/20 02:39:07;;;;;;;0.80;0.50;;;;;;;1.87;100.00;98496.32;3930819;74;383537;-75
2021/01/20 02:44:28;;;;;;;1.00;0.77;;;;;;;1.78;100.00;98489.52;3828771;76;391867;-75
2021/01/20 02:49:49;;;;;;;1.13;1.03;;;;;;;1.64;100.00;98491.39;3928662;75;383813;-75
2021/01/20 02:55:13;;;;;;;2.10;1.03;;;;;;;1.45;100.00;98486.52;3828349;76;394007;-75
2021/01/20 03:00:35;;;;;;;1.00;0.87;;;;;;;1.23;100.00;98484.45;3927940;75;391907;-74
2021/01/20 03:05:57;;;;;;;0.90;0.70;;;;;;;1.36;100.00;98489.98;3829220;76;383808;-75
2021/01/20 03:11:18;;;;;;;1.00;0.50;;;;;;;1.36;100.00;98485.92;3928481;75;387681;-75
2021/01/20 03:16:40;;;;;;;0.90;0.50;;;;;;;1.34;100.00;98481.41;3829059;76;387784;-74
2021/01/20 03:22:01;;;;;;;1.07;0.90;;;;;;;1.28;100.00;98473.91;3927994;74;391953;-74
2021/01/20 03:27:22;;;;;;;0.80;0.60;;;;;;;1.27;100.00;98472.33;3829217;76;383663;-75
2021/01/20 03:32:43;;;;;;;0.87;0.57;;;;;;;1.51;100.00;98467.47;3928593;75;384043;-75
2021/01/20 03:38:05;;;;;;;0.80;0.50;;;;;;;1.72;100.00;98463.84;3829220;76;383588;-75
2021/01/20 03:43:26;;;;;;;0.90;0.50;;;;;;;1.80;100.00;98455.51;3928320;75;385616;-75
2021/01/20 03:48:47;;;;;;;1.00;0.80;;;;;;;1.82;100.00;98445.06;3828848;76;383537;-75
2021/01/20 03:54:09;;;;;;;1.37;0.53;;;;;;;1.89;100.00;98446.59;3928642;75;383901;-74
2021/01/20 03:59:30;;;;;;;0.80;0.40;;;;;;;2.10;100.00;98448.92;3829198;76;383792;-75
2021/01/20 04:04:52;;;;;;;0.87;0.60;;;;;;;2.18;100.00;98447.33;3928412;75;384064;-75
2021/01/20 04:10:13;;;;;;;0.90;0.57;;;;;;;2.11;100.00;98440.97;3829192;76;383603;-75
2021/01/20 04:15:35;;;;;;;0.80;0.40;;;;;;;2.12;100.00;98429.78;3928900;75;383572;-74
2021/01/20 04:20:56;;;;;;;1.43;0.77;;;;;;;2.07;100.00;98435.48;3828953;76;389819;-75
2021/01/20 04:26:17;;;;;;;1.27;0.60;;;;;;;2.12;100.00;98439.28;3928473;75;383576;-75
2021/01/20 04:31:39;;;;;;;0.80;0.40;;;;;;;2.12;100.00;98437.13;3829399;76;383567;-74
2021/01/20 04:37:00;;;;;;;0.90;0.50;;;;;;;2.23;100.00;98440.82;3928663;75;383595;-75
2021/01/20 04:42:21;;;;;;;0.80;0.40;;;;;;;2.14;100.00;98432.89;3829333;76;383800;-75
2021/01/20 04:47:43;;;;;;;1.17;0.60;;;;;;;1.97;100.00;98427.16;3928465;75;390127;-74
2021/01/20 04:53:08;;;;;;;0.80;0.57;;;;;;;2.10;100.00;98434.00;3829341;76;383848;-75
2021/01/20 04:58:29;;;;;;;0.90;0.70;;;;;;;2.02;100.00;98437.73;3929695;75;383592;-75
2021/01/20 05:03:50;;;;;;;1.10;0.63;;;;;;;2.05;100.00;98431.56;3828785;76;388002;-75
2021/01/20 05:09:11;;;;;;;0.80;0.60;;;;;;;1.98;100.00;98417.29;3929014;75;383610;-74
2021/01/20 05:14:32;;;;;;;0.80;0.60;;;;;;;2.16;100.00;98409.50;3829272;76;383604;-74
2021/01/20 05:19:53;;;;;;;0.90;0.60;;;;;;;1.92;100.00;98412.54;3929394;74;383546;-75
2021/01/20 05:25:14;;;;;;;0.80;0.40;;;;;;;1.92;100.00;98422.80;3935021;74;383788;-75
2021/01/20 05:30:56;;;;;;;0.90;0.70;;;;;;;2.03;100.00;98413.50;3934812;74;392128;-75
2021/01/20 05:36:18;;;;;;;0.90;0.60;;;;;;;2.13;100.00;98407.50;3934723;73;383573;-75
2021/01/20 05:41:39;;;;;;;0.90;0.77;;;;;;;2.21;100.00;98407.83;3934369;73;391963;-75
2021/01/20 05:47:08;;;;;;;0.80;0.50;;;;;;;2.16;100.00;98409.50;3935012;74;383769;-75
2021/01/20 05:52:30;;;;;;;1.10;0.70;;;;;;;1.97;100.00;98394.61;3934483;73;383574;-75
2021/01/20 05:57:54;;;;;;;0.80;0.40;;;;;;;1.95;100.00;98400.95;3934664;74;383860;-75
2021/01/20 06:03:15;;;;;;;0.80;0.50;;;;;;;1.77;100.00;98401.22;3934660;74;383591;-75
2021/01/20 06:08:37;;;;;;;0.90;0.67;;;;;;;1.62;100.00;98393.37;3934513;74;383615;-74
2021/01/20 06:14:00;;;;;;;0.80;0.40;;;;;;;1.44;100.00;98396.06;3934691;73;383572;-76
2021/01/20 06:19:23;;;;;;;6.20;0.67;;;;;;;1.44;100.00;98393.36;3933918;73;392155;-74
2021/01/20 06:24:49;;;;;;;1.87;1.27;;;;;;;1.48;100.00;98395.00;3948169;74;383777;-75
2021/01/20 06:30:32;;;;;;;2.10;0.70;;;;;;;1.55;100.00;98394.38;3947870;73;394233;-75
2021/01/20 06:35:53;;;;;;;0.80;0.40;;;;;;;1.48;100.00;98392.87;3772963;77;383557;-75
2021/01/20 06:41:32;;;;;;;0.90;0.50;;;;;;;1.63;100.00;98392.78;3918964;74;383540;-75
2021/01/20 06:46:59;;;;;;;0.80;0.40;;;;;;;1.74;100.00;98384.30;3934362;73;383809;-76
2021/01/20 06:52:20;;;;;;;0.93;0.80;;;;;;;1.63;100.00;98388.16;3948356;74;383602;-74
2021/01/20 06:57:41;;;;;;;0.80;0.40;;;;;;;1.55;100.00;98377.52;3948394;73;383901;-75
2021/01/20 07:03:04;;;;;;;0.80;0.40;;;;;;;1.57;100.00;98375.83;3948339;74;383777;-75
2021/01/20 07:08:28;;;;;;;0.80;0.50;;;;;;;1.63;100.00;98381.94;3948428;74;383568;-75
2021/01/20 07:13:49;;;;;;;0.80;0.47;;;;;;;1.56;100.00;98381.80;3948512;73;383580;-75
2021/01/20 07:19:11;;;;;;;0.90;0.50;;;;;;;1.56;100.00;98381.80;3948373;74;383860;-75
2021/01/20 07:24:34;;;;;;;0.80;0.40;;;;;;;1.53;100.00;98379.83;3936718;74;383569;-75
2021/01/20 07:29:55;;;;;;;0.80;0.53;;;;;;;1.57;100.00;98382.61;3934924;74;383613;-75
2021/01/20 07:35:25;;;;;;;0.80;0.50;;;;;;;1.67;100.00;98388.23;3934652;73;383575;-75
2021/01/20 07:40:47;;;;;;;0.80;0.50;;;;;;;1.63;100.00;98381.39;3934584;74;383541;-76
2021/01/20 07:46:23;;;;;;;0.90;0.50;;;;;;;1.70;100.00;98386.14;3934538;74;383777;-76
2021/01/20 07:51:44;;;;;;;1.30;0.57;;;;;;;1.80;100.00;98390.98;3918140;73;390126;-76
2021/01/20 07:57:07;;;;;;;0.80;0.50;;;;;;;1.69;100.00;98381.30;3934828;73;383819;-76
2021/01/20 08:02:28;;;;;;;0.80;0.40;;;;;;;1.64;100.00;98372.12;3934607;74;383635;-76
2021/01/20 08:07:49;;;;;;;0.80;0.40;;;;;;;1.64;100.00;98369.96;3934794;74;383599;-76
2021/01/20 08:13:15;;;;;;;0.80;0.43;;;;;;;1.69;100.00;98366.98;3934593;74;383589;-76
2021/01/20 08:18:36;;;;;;;0.87;0.63;;;;;;;1.74;100.00;98359.90;3934578;74;383576;-77
2021/01/20 08:24:00;;;;;;;0.80;0.40;;;;;;;1.81;100.00;98357.31;3934627;74;383573;-78
2021/01/20 08:29:22;;;;;;;2.00;1.80;;;;;;;1.83;100.00;98361.23;3777922;77;383596;-78
2021/01/20 08:34:44;;;;;;;1.40;0.97;;;;;;;1.84;100.00;98352.54;3912843;74;383890;-78
2021/01/20 08:40:08;;;;;;;3.23;1.00;;;;;;;1.93;100.00;98358.52;3912815;75;383541;-78
2021/01/20 08:45:33;;;;;;;0.87;0.70;;;;;;;2.05;100.00;98355.63;3912862;75;383565;-78
2021/01/20 08:50:56;;;;;;;1.60;0.90;;;;;;;2.19;100.00;98348.52;3914165;75;393941;-77
2021/01/20 08:56:28;;;;;;;1.53;1.40;;;;;;;2.36;100.00;98343.38;3914038;75;395038;-77
2021/01/20 09:01:50;;;;;;;1.50;0.90;;;;;;;2.51;100.00;98351.94;3912483;74;389926;-78
2021/01/20 09:07:11;;;;;;;1.57;0.70;;;;;;;2.61;100.00;98350.56;3915151;74;383798;-78
2021/01/20 09:12:32;;;;;;;0.80;0.50;;;;;;;2.67;100.00;98340.95;3913727;75;383783;-78
2021/01/20 09:17:54;;;;;;;0.80;0.50;;;;;;;2.76;100.00;98352.34;3915155;74;383822;-78
2021/01/20 09:23:16;;;;;;;0.83;0.60;;;;;;;2.86;100.00;98351.72;3922387;74;383537;-78
2021/01/20 09:28:37;;;;;;;0.87;0.63;;;;;;;2.91;100.00;98345.37;3935450;74;383584;-78
2021/01/20 09:33:58;;;;;;;0.90;0.60;;;;;;;3.03;100.00;98345.16;3935436;73;383585;-77
2021/01/20 09:39:20;;;;;;;2.60;1.80;;;;;;;3.14;100.00;98349.59;3934686;73;383630;-77
2021/01/20 09:44:41;;;;;;;0.90;0.50;;;;;;;3.21;100.00;98346.95;3935472;73;383789;-76
2021/01/20 09:50:02;;;;;;;5.10;1.13;;;;;;;3.29;100.00;98349.20;3934293;74;390830;-76
2021/01/20 09:55:24;;;;;;;1.67;0.70;;;;;;;3.43;100.00;98348.02;3934921;74;389785;-77
2021/01/20 10:00:44;;;;;;;1.00;0.83;;;;;;;3.53;100.00;98337.26;3934859;73;391927;-76
2021/01/20 10:06:06;;;;;;;1.23;0.80;;;;;;;3.75;100.00;98336.92;3934835;74;391902;-77
2021/01/20 10:11:27;;;;;;;1.20;0.90;;;;;;;3.95;100.00;98326.84;3934789;74;389870;-76
2021/01/20 10:16:48;;;;;;;1.67;1.57;;;;;;;4.14;100.00;98317.88;3934512;73;383575;-76
2021/01/20 10:22:10;;;;;;;1.80;1.23;;;;;;;4.26;100.00;98310.80;3934534;74;383821;-78
2021/01/20 10:27:33;;;;;;;2.00;1.33;;;;;;;4.44;100.00;98301.41;3914070;74;393950;-77
2021/01/20 10:32:54;;;;;;;0.90;0.60;;;;;;;4.65;100.00;98286.00;3913149;74;383809;-77
2021/01/20 10:38:15;;;;;;;1.10;0.80;;;;;;;4.92;100.00;98275.08;3914849;75;383821;-77
2021/01/20 10:43:38;;;;;;;0.93;0.73;;;;;;;5.15;100.00;98269.53;3914959;75;387689;-77
2021/01/20 10:49:01;;;;;;;2.40;1.23;;;;;;;5.54;100.00;98266.34;3913974;75;396313;-77
2021/01/20 10:54:22;;;;;;;1.10;0.77;;;;;;;5.80;100.00;98256.50;3912656;75;388663;-77
2021/01/20 10:59:44;;;;;;;0.80;0.50;;;;;;;6.01;100.00;98245.03;3913130;75;383824;-77
2021/01/20 11:05:06;;;;;;;1.60;0.83;;;;;;;6.15;95.26;98229.23;3912321;75;389869;-77
2021/01/20 11:10:27;;;;;;;1.47;0.73;;;;;;;6.25;93.14;98233.92;3912771;75;384570;-77
2021/01/20 11:15:50;;;;;;;1.60;1.50;;;;;;;6.84;88.62;98224.25;3911962;74;391934;-77
2021/01/20 11:21:14;;;;;;;1.90;1.80;;;;;;;7.62;92.80;98205.12;3912498;75;384551;-77
2021/01/20 11:26:34;;;;;;;1.03;0.80;;;;;;;8.87;81.78;98201.88;3930527;73;388651;-77
2021/01/20 11:31:56;;;;;;;5.60;0.87;;;;;;;9.81;77.91;98204.76;3934486;74;393923;-77
2021/01/20 11:37:17;;;;;;;1.00;0.87;;;;;;;9.22;66.34;98189.88;3934934;74;392101;-77
2021/01/20 11:42:38;;;;;;;0.87;0.57;;;;;;;8.62;68.29;98190.40;3935273;74;383580;-77
2021/01/20 11:47:59;;;;;;;0.80;0.40;;;;;;;9.20;66.71;98192.28;3935378;74;383579;-77
2021/01/20 11:53:21;;;;;;;0.83;0.57;;;;;;;9.10;67.29;98184.16;3935262;74;384525;-76
2021/01/20 11:58:42;;;;;;;0.90;0.60;;;;;;;8.77;67.52;98172.61;3935304;74;384766;-76
2021/01/20 12:04:06;;;;;;;1.10;0.90;;;;;;;8.34;69.41;98160.55;3934551;74;392835;-76
2021/01/20 12:09:26;;;;;;;1.20;0.60;;;;;;;8.74;69.74;98147.39;3934887;74;389752;-77
2021/01/20 12:14:47;;;;;;;4.33;1.00;;;;;;;9.07;66.43;98139.74;3934737;74;385589;-77
2021/01/20 12:20:09;;;;;;;1.03;0.70;;;;;;;8.84;68.75;98125.33;3935133;73;384611;-76
2021/01/20 12:25:30;;;;;;;1.00;0.70;;;;;;;8.67;67.44;98114.58;3925670;74;391852;-76
2021/01/20 12:30:51;;;;;;;1.43;0.70;;;;;;;8.74;68.50;98104.89;3912381;75;387748;-76
2021/01/20 12:36:13;;;;;;;1.03;0.73;;;;;;;8.57;67.40;98098.23;3912602;75;388699;-76
2021/01/20 12:41:34;;;;;;;1.17;0.93;;;;;;;8.19;70.26;98095.34;3912470;75;389686;-76
2021/01/20 12:46:55;;;;;;;0.80;0.40;;;;;;;8.37;69.67;98080.86;3913009;74;384807;-75
2021/01/20 12:52:16;;;;;;;1.50;0.77;;;;;;;8.61;68.79;98083.30;3913019;75;384563;-75
2021/01/20 12:57:39;;;;;;;8.13;0.80;;;;;;;8.55;69.10;98075.96;3912920;75;391876;-76
2021/01/20 13:03:00;;;;;;;1.70;1.40;;;;;;;8.74;68.20;98074.13;3883471;75;397041;-75
2021/01/20 13:08:21;;;;;;;3.10;1.90;;;;;;;9.34;67.34;98054.87;3912053;75;397083;-76
2021/01/20 13:13:42;;;;;;;1.87;1.67;;;;;;;9.62;68.53;98047.54;3913759;74;397062;-76
2021/01/20 13:19:03;;;;;;;3.47;1.73;;;;;;;9.79;67.69;98036.27;3914238;74;396041;-76
2021/01/20 13:24:24;;;;;;;2.83;1.83;;;;;;;9.98;66.13;98038.30;3914150;74;387611;-76
2021/01/20 13:29:45;;;;;;;2.80;0.90;;;;;;;9.96;66.50;98020.66;3914564;74;392915;-76
2021/01/20 13:35:07;;;;;;;2.90;2.40;;;;;;;9.93;66.86;98021.52;3914028;74;397020;-76
2021/01/20 13:40:28;;;;;;;1.50;1.40;;;;;;;9.89;66.62;98015.30;3914447;74;390892;-76
2021/01/20 13:45:49;;;;;;;1.17;0.87;;;;;;;9.52;69.25;98013.59;3914906;74;384758;-76
2021/01/20 13:51:11;;;;;;;2.47;1.50;;;;;;;9.53;68.62;98008.86;3912001;75;394927;-77
2021/01/20 13:56:32;;;;;;;3.90;2.53;;;;;;;9.60;69.86;98007.39;3911993;75;396136;-76
2021/01/20 14:01:53;;;;;;;11.23;6.10;;;;;;;9.90;69.95;98004.49;3914056;74;396353;-75
2021/01/20 14:07:15;;;;;;;3.73;2.33;;;;;;;9.68;67.93;97997.23;3911752;74;397002;-76
2021/01/20 14:12:36;;;;;;;3.20;1.20;;;;;;;9.28;69.81;98001.66;3914130;74;394962;-76
2021/01/20 14:17:57;;;;;;;2.13;1.47;;;;;;;9.05;72.60;97993.98;3913860;74;396108;-77
2021/01/20 14:23:19;;;;;;;4.70;2.43;;;;;;;9.18;74.99;97991.62;3913788;74;397049;-76
2021/01/20 14:28:40;;;;;;;8.60;2.00;;;;;;;9.39;73.80;97992.63;3912516;74;386579;-76
2021/01/20 14:34:01;;;;;;;1.57;1.27;;;;;;;9.18;73.50;97990.25;3913980;75;392904;-76
2021/01/20 14:39:23;;;;;;;1.67;1.17;;;;;;;8.89;72.31;97982.25;3914055;74;396040;-76
2021/01/20 14:44:44;;;;;;;2.40;2.20;;;;;;;8.55;74.95;97983.53;3913922;75;392947;-76
2021/01/20 14:50:06;;;;;;;3.83;1.30;;;;;;;8.33;76.14;97971.31;3914207;74;394969;-76
2021/01/20 14:55:27;;;;;;;1.67;1.57;;;;;;;8.10;76.50;97971.75;3911859;75;396998;-76
2021/01/20 15:00:48;;;;;;;1.87;1.43;;;;;;;7.88;77.16;97968.48;3912061;75;394274;-76
2021/01/20 15:06:10;;;;;;;1.03;0.93;;;;;;;7.74;77.98;97965.72;3914707;74;386887;-77
2021/01/20 15:11:31;;;;;;;3.13;1.10;;;;;;;7.57;78.20;97956.52;3912672;75;384515;-76
2021/01/20 15:16:52;;;;;;;1.20;1.07;;;;;;;7.39;79.13;97947.70;3914709;74;388651;-76
2021/01/20 15:22:13;;;;;;;1.93;1.83;;;;;;;7.30;79.29;97940.55;3911987;74;391908;-77
2021/01/20 15:27:35;;;;;;;1.00;0.77;;;;;;;7.11;79.36;97935.48;3923406;73;385950;-77
2021/01/20 15:32:56;;;;;;;1.10;0.97;;;;;;;6.81;80.26;97929.84;3934659;73;387934;-78
2021/01/20 15:38:19;;;;;;;3.53;2.10;;;;;;;6.53;81.94;97940.98;3933930;74;398044;-77
2021/01/20 15:43:40;;;;;;;18.77;4.97;;;;;;;6.31;83.31;97934.67;3933859;74;394963;-77
2021/01/20 15:49:01;;;;;;;3.80;1.83;;;;;;;6.14;83.30;97935.54;3933923;74;396457;-77
2021/01/20 15:54:22;;;;;;;1.40;1.30;;;;;;;6.03;82.61;97940.27;3934516;74;391936;-76
2021/01/20 15:59:43;;;;;;;1.00;0.83;;;;;;;5.97;82.09;97935.83;3935144;73;384582;-77
2021/01/20 16:05:05;;;;;;;8.03;2.37;;;;;;;5.98;81.37;97933.86;3934180;73;396325;-77
2021/01/20 16:10:27;;;;;;;3.10;1.40;;;;;;;6.04;80.60;97937.16;3934114;73;396379;-76
2021/01/20 16:15:48;;;;;;;3.67;1.40;;;;;;;6.26;80.08;97936.47;3934421;74;392846;-76
2021/01/20 16:21:09;;;;;;;2.80;1.97;;;;;;;5.98;82.20;97940.08;3933992;74;397022;-76
2021/01/20 16:26:31;;;;;;;1.33;1.23;;;;;;;5.84;84.10;97942.87;3930257;74;391894;-76
2021/01/20 16:31:52;;;;;;;1.97;1.60;;;;;;;5.75;83.30;97955.36;3911794;75;395261;-77
2021/01/20 16:37:14;;;;;;;3.60;2.63;;;;;;;5.39;86.62;97959.33;3913540;74;397029;-75
2021/01/20 16:42:35;;;;;;;4.47;2.33;;;;;;;5.23;88.01;97960.92;3914334;74;387770;-76
2021/01/20 16:47:56;;;;;;;2.10;0.83;;;;;;;5.01;89.19;97960.72;3914053;74;393937;-75
2021/01/20 16:53:19;;;;;;;8.00;3.83;;;;;;;4.99;88.56;97957.63;3911930;74;396045;-74
2021/01/20 16:58:40;;;;;;;2.67;2.40;;;;;;;4.86;90.67;97961.89;3911285;75;396131;-76
2021/01/20 17:04:02;;;;;;;5.80;2.80;;;;;;;4.56;92.16;97949.22;3913817;74;396123;-75
2021/01/20 17:09:23;;;;;;;4.70;1.20;;;;;;;4.36;94.58;97949.97;3912199;75;387978;-78
2021/01/20 17:14:44;;;;;;;1.83;1.73;;;;;;;4.28;100.00;97958.68;3911388;75;396398;-75
2021/01/20 17:20:07;;;;;;;4.90;1.10;;;;;;;4.22;100.00;97962.19;3912050;74;394004;-75
2021/01/20 17:25:28;;;;;;;3.07;2.87;;;;;;;3.83;100.00;97957.19;3914115;75;391914;-74
2021/01/20 17:30:51;;;;;;;2.90;2.00;;;;;;;3.50;100.00;97957.97;3911912;74;396297;-75
2021/01/20 17:36:12;;;;;;;2.10;1.80;;;;;;;3.25;100.00;97948.88;3911924;75;396165;-75
2021/01/20 17:41:33;;;;;;;2.50;2.30;;;;;;;3.06;100.00;97942.37;3911926;74;396294;-75
2021/01/20 17:46:54;;;;;;;3.63;2.30;;;;;;;2.89;100.00;97954.44;3913986;75;395078;-78
2021/01/20 17:52:15;;;;;;;4.80;3.93;;;;;;;2.78;100.00;97942.73;3913962;74;396330;-75
2021/01/20 17:57:37;;;;;;;3.83;3.47;;;;;;;2.61;100.00;97935.98;3911917;74;396033;-75
2021/01/20 18:02:59;;;;;;;6.10;3.17;;;;;;;2.52;100.00;97931.45;3911692;74;394001;-75
2021/01/20 18:08:21;;;;;;;11.93;3.17;;;;;;;2.42;100.00;97929.41;3911983;75;400203;-75
2021/01/20 18:13:41;;;;;;;3.10;2.90;;;;;;;2.51;100.00;97923.69;3913709;75;396423;-75
2021/01/20 18:19:03;;;;;;;3.77;1.40;;;;;;;2.32;100.00;97920.41;3911916;74;393997;-75
2021/01/20 18:24:24;;;;;;;2.30;2.17;;;;;;;2.24;100.00;97918.78;3911685;74;396096;-74
2021/01/20 18:29:45;;;;;;;1.93;1.83;;;;;;;2.20;100.00;97913.31;3924303;73;396087;-74
2021/01/20 18:35:07;;;;;;;2.17;1.97;;;;;;;2.10;100.00;97912.63;3933954;73;396355;-77
2021/01/20 18:40:28;;;;;;;1.70;1.60;;;;;;;2.10;100.00;97913.22;3934461;74;387829;-76
2021/01/20 18:45:50;;;;;;;2.27;2.07;;;;;;;2.01;100.00;97906.72;3934075;73;396054;-75
2021/01/20 18:51:11;;;;;;;2.60;2.10;;;;;;;2.07;100.00;97909.30;3934520;74;392102;-74
2021/01/20 18:56:32;;;;;;;1.47;1.37;;;;;;;2.02;100.00;97903.45;3934818;74;392151;-75
2021/01/20 19:01:52;;;;;;;11.83;1.57;;;;;;;2.00;100.00;97903.03;3934854;73;383584;-74
2021/01/20 19:07:14;;;;;;;1.77;1.67;;;;;;;2.06;100.00;97896.11;3934041;74;396138;-75
2021/01/20 19:12:36;;;;;;;1.40;1.23;;;;;;;2.06;100.00;97893.41;3934273;74;396076;-75
2021/01/20 19:17:57;;;;;;;26.90;4.00;;;;;;;2.08;100.00;97886.45;3934120;74;393180;-75
2021/01/20 19:23:21;;;;;;;4.83;2.30;;;;;;;2.09;100.00;97883.95;3934321;74;388121;-74
2021/01/20 19:28:42;;;;;;;3.27;2.53;;;;;;;2.11;100.00;97884.91;3936060;74;396379;-75
2021/01/20 19:34:04;;;;;;;5.50;2.93;;;;;;;2.10;100.00;97877.37;3939994;74;396080;-75
2021/01/20 19:39:26;;;;;;;7.87;4.47;;;;;;;2.11;100.00;97873.52;3939782;74;396385;-74
2021/01/20 19:44:47;;;;;;;4.20;2.80;;;;;;;2.13;100.00;97862.28;3929197;74;396323;-74
2021/01/20 19:50:09;;;;;;;12.10;4.10;;;;;;;2.23;100.00;97854.82;3828073;76;396123;-75
2021/01/20 19:55:30;;;;;;;5.07;4.57;;;;;;;2.21;100.00;97847.62;3927339;75;396159;-75
2021/01/20 20:00:52;;;;;;;4.80;3.90;;;;;;;2.13;100.00;97833.80;3827848;76;396288;-75
2021/01/20 20:06:13;;;;;;;3.80;2.00;;;;;;;2.25;100.00;97832.17;3927592;75;396037;-74
2021/01/20 20:11:34;;;;;;;4.17;3.87;;;;;;;2.13;100.00;97836.51;3827823;76;396329;-77
2021/01/20 20:16:55;;;;;;;5.50;2.50;;;;;;;2.07;100.00;97831.23;3927304;75;396087;-75
2021/01/20 20:22:17;;;;;;;1.73;1.63;;;;;;;2.06;100.00;97844.59;3828048;76;396043;-74
2021/01/20 20:27:38;;;;;;;2.20;1.53;;;;;;;2.04;100.00;97846.33;3927888;75;383836;-74
2021/01/20 20:32:59;;;;;;;6.13;3.03;;;;;;;2.03;100.00;97844.77;3827985;76;391886;-74
2021/01/20 20:38:20;;;;;;;9.73;3.83;;;;;;;2.06;100.00;97843.23;3928049;75;387008;-75
2021/01/20 20:43:42;;;;;;;6.57;3.07;;;;;;;2.06;100.00;97848.66;3828094;76;396119;-75
2021/01/20 20:49:03;;;;;;;4.40;2.43;;;;;;;2.04;100.00;97837.39;3927522;75;396096;-75
2021/01/20 20:54:24;;;;;;;2.03;1.93;;;;;;;2.13;100.00;97829.17;3827674;76;393946;-74
2021/01/20 20:59:45;;;;;;;1.80;1.70;;;;;;;2.06;100.00;97833.73;3927431;75;392897;-74
2021/01/20 21:05:08;;;;;;;8.73;3.90;;;;;;;2.00;100.00;97829.81;3828526;76;396076;-74
2021/01/20 21:10:29;;;;;;;5.90;3.33;;;;;;;2.13;100.00;97828.37;3927880;75;396079;-74
2021/01/20 21:15:50;;;;;;;3.00;2.70;;;;;;;2.18;100.00;97823.98;3828584;76;394003;-75
2021/01/20 21:21:11;;;;;;;5.10;2.43;;;;;;;2.04;100.00;97821.13;3927481;75;396069;-75
2021/01/20 21:26:32;;;;;;;2.13;1.90;;;;;;;1.97;100.00;97818.34;3828477;76;389013;-74
2021/01/20 21:31:54;;;;;;;2.37;2.17;;;;;;;1.98;100.00;97813.13;3930230;73;396344;-77
2021/01/20 21:37:15;;;;;;;1.93;1.83;;;;;;;1.90;100.00;97809.56;3933276;74;396390;-74
2021/01/20 21:42:36;;;;;;;2.80;1.87;;;;;;;1.85;100.00;97809.15;3933387;74;396083;-77
2021/01/20 21:47:58;;;;;;;4.93;3.00;;;;;;;1.84;100.00;97797.51;3933250;74;396083;-75
2021/01/20 21:53:19;;;;;;;5.80;5.30;;;;;;;1.81;100.00;97796.92;3934049;74;387964;-75
2021/01/20 21:58:40;;;;;;;3.13;2.83;;;;;;;1.76;100.00;97799.18;3933507;74;396160;-75
2021/01/20 22:04:01;;;;;;;9.23;3.10;;;;;;;1.65;100.00;97795.02;3933879;74;395061;-74
2021/01/20 22:09:23;;;;;;;2.00;1.90;;;;;;;1.55;100.00;97790.82;3933150;74;396523;-74
2021/01/20 22:14:44;;;;;;;6.83;2.87;;;;;;;1.47;100.00;97800.02;3933387;74;396361;-74
2021/01/20 22:20:06;;;;;;;3.87;3.27;;;;;;;1.37;100.00;97800.72;3933293;74;396159;-74
2021/01/20 22:25:28;;;;;;;2.73;2.37;;;;;;;1.35;100.00;97803.56;3933336;73;396399;-75
2021/01/20 22:30:49;;;;;;;1.60;1.50;;;;;;;1.22;100.00;97798.20;3939038;74;383789;-74
2021/01/20 22:36:11;;;;;;;3.93;3.67;;;;;;;1.18;100.00;97790.59;3946932;74;396343;-74
2021/01/20 22:41:32;;;;;;;2.00;1.90;;;;;;;1.19;100.00;97784.83;3947337;74;396138;-75
2021/01/20 22:46:53;;;;;;;2.47;2.23;;;;;;;1.16;100.00;97767.19;3947125;74;396124;-74
2021/01/20 22:52:14;;;;;;;5.63;2.00;;;;;;;1.11;100.00;97766.94;3947454;74;396056;-74
2021/01/20 22:57:36;;;;;;;1.50;1.33;;;;;;;1.17;100.00;97768.16;3947710;74;391937;-74
2021/01/20 23:02:57;;;;;;;3.90;1.60;;;;;;;1.02;100.00;97750.20;3947476;74;394013;-74
2021/01/20 23:08:18;;;;;;;1.40;1.30;;;;;;;0.98;100.00;97745.30;3920355;74;396078;-74
2021/01/20 23:13:41;;;;;;;2.73;2.33;;;;;;;0.94;100.00;97735.02;3790769;77;389815;-74
2021/01/20 23:19:02;;;;;;;2.33;2.13;;;;;;;0.89;100.00;97731.27;3804065;77;396299;-74
2021/01/20 23:24:23;;;;;;;6.10;2.90;;;;;;;0.82;100.00;97721.71;3802820;77;396066;-75
2021/01/20 23:29:44;;;;;;;1.90;1.80;;;;;;;0.79;100.00;97720.32;3802342;77;396415;-74
2021/01/20 23:35:07;;;;;;;2.67;1.77;;;;;;;0.85;100.00;97712.07;3790513;77;396399;-74
2021/01/20 23:40:28;;;;;;;2.60;2.40;;;;;;;0.78;100.00;97701.17;3790424;77;394013;-74
2021/01/20 23:45:49;;;;;;;6.77;2.17;;;;;;;0.70;100.00;97693.34;3790969;77;396040;-74
2021/01/20 23:51:10;;;;;;;4.50;2.60;;;;;;;0.63;100.00;97685.91;3790373;77;396296;-74
2021/01/20 23:56:31;;;;;;;6.90;1.87;;;;;;;0.61;100.00;97685.49;3790725;77;393210;-74
